Time;durP1;ratioP1;P1;durP2;ratioP2;P2;SDS_P1;SDS_P2;PMS_P1;PMS_P2;Temp;Humidity;BMP_temperature;BMP_pressure;BME280_temperature;BME280_humidity;BME280_pressure;Samples;Min_cycle;Max_cycle;Signal;HPM_P1;HPM_P2
2022/04/07 00:01:51;;;;;;;30.75;9.07;;;9.00;99.90;;;;;;5075297;28;20068;-66
2022/04/07 00:04:17;;;;;;;33.88;8.90;;;9.30;99.90;;;;;;5057430;28;20036;-72
2022/04/07 00:06:42;;;;;;;25.63;8.57;;;9.20;99.90;;;;;;5051128;28;20124;-61
2022/04/07 00:09:08;;;;;;;24.55;9.65;;;9.30;99.90;;;;;;5057836;28;20090;-74
2022/04/07 00:11:33;;;;;;;25.75;9.23;;;9.10;99.90;;;;;;5052111;28;20045;-68
2022/04/07 00:13:59;;;;;;;25.95;8.90;;;9.20;99.90;;;;;;5050832;28;20491;-66
2022/04/07 00:16:25;;;;;;;24.63;8.93;;;9.40;99.90;;;;;;5043697;28;20057;-68
2022/04/07 00:18:50;;;;;;;25.38;8.98;;;9.30;99.90;;;;;;5050223;28;20044;-70
2022/04/07 00:21:24;;;;;;;25.60;9.63;;;9.40;99.90;;;;;;5049269;28;20037;-65
2022/04/07 00:23:51;;;;;;;29.05;9.55;;;9.20;99.90;;;;;;5059390;28;20040;-65
2022/04/07 00:26:16;;;;;;;25.88;10.02;;;9.10;99.90;;;;;;5050730;28;20029;-68
2022/04/07 00:28:42;;;;;;;26.67;9.93;;;9.00;99.90;;;;;;5051484;28;20498;-66
2022/04/07 00:31:08;;;;;;;32.25;11.13;;;9.00;99.90;;;;;;5052225;28;20048;-65
2022/04/07 00:33:34;;;;;;;28.67;11.23;;;9.00;99.90;;;;;;5055666;28;20097;-66
2022/04/07 00:35:59;;;;;;;33.30;13.32;;;9.30;99.90;;;;;;5049636;28;20124;-66
2022/04/07 00:38:24;;;;;;;29.00;12.57;;;9.30;99.90;;;;;;5044227;28;20044;-65
2022/04/07 00:40:50;;;;;;;29.90;12.70;;;9.30;99.90;;;;;;5055734;28;20040;-64
2022/04/07 00:43:36;;;;;;;29.67;13.32;;;9.30;99.90;;;;;;5055088;28;20056;-72
2022/04/07 00:46:03;;;;;;;33.30;13.95;;;9.10;99.90;;;;;;5047946;28;20491;-65
2022/04/07 00:48:29;;;;;;;31.20;12.35;;;9.10;99.90;;;;;;5049665;28;20045;-67
2022/04/07 00:50:55;;;;;;;30.77;15.27;;;9.30;99.90;;;;;;5049962;28;20369;-68
2022/04/07 00:53:22;;;;;;;35.67;14.10;;;9.20;99.90;;;;;;5046480;28;20115;-64
2022/04/07 00:55:50;;;;;;;29.58;13.30;;;9.10;99.90;;;;;;5049292;28;20065;-68
2022/04/07 00:58:17;;;;;;;37.03;14.25;;;9.20;99.90;;;;;;5046758;28;20045;-68
2022/04/07 01:00:43;;;;;;;37.95;16.80;;;9.00;99.90;;;;;;5050517;28;20079;-72
2022/04/07 01:03:09;;;;;;;30.77;14.55;;;9.30;99.90;;;;;;5047260;28;20438;-69
2022/04/07 01:05:35;;;;;;;32.70;14.52;;;9.00;99.90;;;;;;5048770;28;20055;-69
2022/04/07 01:08:01;;;;;;;34.53;14.73;;;9.20;99.90;;;;;;5050225;28;20049;-73
2022/04/07 01:10:28;;;;;;;33.80;14.82;;;9.00;99.90;;;;;;5050166;28;20468;-68
2022/04/07 01:12:54;;;;;;;35.55;14.38;;;9.20;99.90;;;;;;5049008;28;20040;-71
2022/04/07 01:15:20;;;;;;;39.08;14.45;;;9.20;99.90;;;;;;5055027;28;20047;-71
2022/04/07 01:17:45;;;;;;;44.60;15.15;;;9.00;99.90;;;;;;5056535;28;20141;-64
2022/04/07 01:20:11;;;;;;;31.05;13.80;;;9.20;99.90;;;;;;5056489;28;20064;-69
2022/04/07 01:22:40;;;;;;;34.10;13.85;;;9.00;99.90;;;;;;5058673;28;20079;-70
2022/04/07 01:25:07;;;;;;;35.72;14.07;;;9.00;99.90;;;;;;5056122;28;20120;-72
2022/04/07 01:27:33;;;;;;;34.78;13.07;;;9.20;99.90;;;;;;5051768;28;20033;-72
2022/04/07 01:30:03;;;;;;;28.13;11.10;;;9.10;99.90;;;;;;5054300;28;20475;-69
2022/04/07 01:32:43;;;;;;;33.40;11.70;;;8.90;99.90;;;;;;5054531;28;20040;-67
2022/04/07 01:35:09;;;;;;;25.65;10.25;;;8.90;99.90;;;;;;5038812;28;20033;-72
2022/04/07 01:37:37;;;;;;;33.30;10.05;;;9.10;99.90;;;;;;5050898;28;20130;-69
2022/04/07 01:40:09;;;;;;;28.60;9.32;;;8.80;99.90;;;;;;5049436;28;20108;-70
2022/04/07 01:42:37;;;;;;;33.15;9.30;;;9.00;99.90;;;;;;5054119;28;20043;-72
2022/04/07 01:45:05;;;;;;;33.97;9.25;;;9.10;99.90;;;;;;5060121;28;20064;-73
2022/04/07 01:47:33;;;;;;;26.35;9.18;;;8.80;99.90;;;;;;5060485;28;20072;-72
2022/04/07 01:50:03;;;;;;;30.65;8.40;;;8.80;99.90;;;;;;5062040;28;20037;-67
2022/04/07 01:52:30;;;;;;;27.88;9.82;;;8.80;99.90;;;;;;5046608;28;20033;-64
2022/04/07 01:54:58;;;;;;;28.35;9.60;;;8.90;99.90;;;;;;5054493;28;20395;-70
2022/04/07 01:57:24;;;;;;;33.33;10.52;;;8.90;99.90;;;;;;5059345;28;20037;-74
2022/04/07 01:59:51;;;;;;;32.53;9.15;;;8.90;99.90;;;;;;5048839;28;20126;-67
2022/04/07 02:02:16;;;;;;;36.05;8.32;;;8.80;99.90;;;;;;5054488;28;20040;-69
2022/04/07 02:04:52;;;;;;;25.60;7.82;;;8.70;99.90;;;;;;5049660;28;20040;-66
2022/04/07 02:07:18;;;;;;;22.33;7.88;;;8.90;99.90;;;;;;5055479;28;20063;-67
2022/04/07 02:09:43;;;;;;;27.35;7.80;;;8.70;99.90;;;;;;5056072;28;20045;-71
2022/04/07 02:12:09;;;;;;;26.63;8.27;;;8.70;99.90;;;;;;5060996;28;20050;-67
2022/04/07 02:14:35;;;;;;;28.52;7.88;;;9.00;99.90;;;;;;5052129;28;20080;-68
2022/04/07 02:17:01;;;;;;;30.20;7.53;;;9.00;99.90;;;;;;5052006;28;20485;-65
2022/04/07 02:19:27;;;;;;;32.72;8.20;;;8.90;99.90;;;;;;5032058;28;20041;-67
2022/04/07 02:21:52;;;;;;;33.72;8.48;;;9.00;99.90;;;;;;5039610;28;20047;-73
2022/04/07 02:24:18;;;;;;;40.10;8.52;;;8.80;99.90;;;;;;5051364;28;20127;-65
2022/04/07 02:26:44;;;;;;;37.80;7.45;;;9.00;99.90;;;;;;5054094;28;20044;-64
2022/04/07 02:29:09;;;;;;;37.97;9.00;;;8.90;99.90;;;;;;5048211;28;20049;-64
2022/04/07 02:31:34;;;;;;;34.60;8.23;;;8.90;99.90;;;;;;5048557;28;20041;-64
2022/04/07 02:34:00;;;;;;;42.90;8.65;;;8.70;99.90;;;;;;5060484;28;20517;-67
2022/04/07 02:36:26;;;;;;;40.88;8.35;;;9.00;99.90;;;;;;5047145;28;20048;-70
2022/04/07 02:38:51;;;;;;;32.92;7.88;;;8.70;99.90;;;;;;5061677;28;20457;-65
2022/04/07 02:41:17;;;;;;;36.70;7.57;;;9.10;99.90;;;;;;5032653;28;20036;-68
2022/04/07 02:43:42;;;;;;;36.70;8.63;;;9.00;99.90;;;;;;5048648;28;20392;-64
2022/04/07 02:46:08;;;;;;;30.48;7.63;;;8.80;99.90;;;;;;5049024;28;20484;-66
2022/04/07 02:48:33;;;;;;;33.45;7.50;;;8.70;99.90;;;;;;5053971;28;20029;-65
2022/04/07 02:50:59;;;;;;;30.20;7.50;;;8.70;99.90;;;;;;5048867;28;20048;-65
2022/04/07 02:53:25;;;;;;;37.63;8.00;;;8.90;99.90;;;;;;5054964;28;20539;-64
2022/04/07 02:55:50;;;;;;;39.38;7.60;;;9.00;99.90;;;;;;5049079;28;20143;-66
2022/04/07 02:58:16;;;;;;;31.83;7.40;;;8.80;99.90;;;;;;5038579;28;20044;-66
2022/04/07 03:00:41;;;;;;;36.90;7.43;;;8.90;99.90;;;;;;5047437;28;20041;-70
2022/04/07 03:03:07;;;;;;;36.85;7.47;;;8.90;99.90;;;;;;5059651;28;20039;-66
2022/04/07 03:05:33;;;;;;;28.30;6.15;;;8.60;99.90;;;;;;5053425;28;20127;-67
2022/04/07 03:07:58;;;;;;;30.17;6.50;;;8.90;99.90;;;;;;5056798;28;20092;-73
2022/04/07 03:10:24;;;;;;;35.15;6.50;;;8.60;99.90;;;;;;5058715;28;20132;-66
2022/04/07 03:12:49;;;;;;;30.67;6.15;;;8.60;99.90;;;;;;5048456;28;20116;-68
2022/04/07 03:15:15;;;;;;;26.02;7.30;;;8.90;99.90;;;;;;5042500;28;20361;-68
2022/04/07 03:17:40;;;;;;;31.35;6.72;;;8.60;99.90;;;;;;5059383;28;20036;-77
2022/04/07 03:20:06;;;;;;;22.65;6.05;;;8.90;99.90;;;;;;5056952;28;20429;-68
2022/04/07 03:22:32;;;;;;;25.02;5.57;;;8.70;99.90;;;;;;5059957;28;20033;-65
2022/04/07 03:24:57;;;;;;;26.70;6.95;;;8.60;99.90;;;;;;5050261;28;20395;-72
2022/04/07 03:27:23;;;;;;;28.92;8.20;;;8.80;99.90;;;;;;5050526;28;20037;-66
2022/04/07 03:29:48;;;;;;;31.45;8.15;;;8.80;99.90;;;;;;5035159;28;20035;-74
2022/04/07 03:32:14;;;;;;;25.40;7.40;;;8.80;99.90;;;;;;5040519;28;20076;-66
2022/04/07 03:34:39;;;;;;;32.88;7.38;;;8.50;99.90;;;;;;5060808;28;20514;-63
2022/04/07 03:37:06;;;;;;;33.63;7.70;;;8.50;99.90;;;;;;5068259;28;20037;-67
2022/04/07 03:39:32;;;;;;;35.88;8.38;;;8.70;99.90;;;;;;5052962;28;20047;-69
2022/04/07 03:41:58;;;;;;;37.63;8.05;;;8.40;99.90;;;;;;5057987;28;20028;-72
2022/04/07 03:44:24;;;;;;;44.70;7.43;;;8.70;99.90;;;;;;5033879;28;20502;-73
2022/04/07 03:46:50;;;;;;;32.05;7.40;;;8.70;99.90;;;;;;5050500;28;20041;-64
2022/04/07 03:49:15;;;;;;;23.40;6.65;;;8.50;99.90;;;;;;5049964;28;20136;-68
2022/04/07 03:51:41;;;;;;;35.08;7.53;;;8.80;99.90;;;;;;5064154;28;20495;-72
2022/04/07 03:54:06;;;;;;;35.50;10.20;;;8.80;99.90;;;;;;5034720;28;20025;-67
2022/04/07 03:56:32;;;;;;;39.10;10.75;;;8.80;99.90;;;;;;5051234;28;20357;-74
2022/04/07 03:58:58;;;;;;;41.42;11.90;;;8.70;99.90;;;;;;5051887;28;20040;-70
2022/04/07 04:01:26;;;;;;;43.15;11.13;;;8.80;99.90;;;;;;5044894;28;20037;-71
2022/04/07 04:03:51;;;;;;;47.80;10.07;;;8.80;99.90;;;;;;5050274;28;20039;-69
2022/04/07 04:06:17;;;;;;;45.55;9.52;;;8.70;99.90;;;;;;5049494;28;20127;-65
2022/04/07 04:08:42;;;;;;;45.05;10.82;;;8.90;99.90;;;;;;5050486;28;20049;-69
2022/04/07 04:11:08;;;;;;;47.53;9.45;;;8.60;99.90;;;;;;5053009;28;20075;-67
2022/04/07 04:13:33;;;;;;;56.20;10.10;;;8.50;99.90;;;;;;5054047;28;20163;-64
2022/04/07 04:16:01;;;;;;;43.10;8.93;;;8.80;99.90;;;;;;5049915;28;20082;-65
2022/04/07 04:18:26;;;;;;;46.38;8.93;;;8.70;99.90;;;;;;5052761;28;20128;-65
2022/04/07 04:20:53;;;;;;;47.40;7.97;;;8.50;99.90;;;;;;5051939;28;20163;-69
2022/04/07 04:23:19;;;;;;;47.35;8.30;;;8.50;99.90;;;;;;5068754;28;20507;-67
2022/04/07 04:25:46;;;;;;;42.17;8.48;;;8.80;99.90;;;;;;5065118;28;20116;-68
2022/04/07 04:28:12;;;;;;;48.40;9.43;;;8.80;99.90;;;;;;5052841;28;20063;-64
2022/04/07 04:30:37;;;;;;;49.45;8.82;;;8.60;99.90;;;;;;5066798;28;20041;-75
2022/04/07 04:33:03;;;;;;;42.58;9.10;;;8.60;99.90;;;;;;5064886;28;20565;-65
2022/04/07 04:35:28;;;;;;;49.38;9.15;;;8.80;99.90;;;;;;5036633;28;20041;-71
2022/04/07 04:37:54;;;;;;;54.35;8.68;;;8.70;99.90;;;;;;5048040;28;20094;-67
2022/04/07 04:40:20;;;;;;;45.03;7.57;;;8.60;99.90;;;;;;5052141;28;20099;-63
2022/04/07 04:42:45;;;;;;;57.47;8.60;;;8.60;99.90;;;;;;5052321;28;20112;-69
2022/04/07 04:45:11;;;;;;;46.08;7.95;;;8.70;99.90;;;;;;5068652;28;20033;-68
2022/04/07 04:47:36;;;;;;;40.10;7.72;;;8.60;99.90;;;;;;5051350;28;20036;-69
2022/04/07 04:50:06;;;;;;;50.90;8.57;;;8.80;99.90;;;;;;5067195;28;20483;-75
2022/04/07 04:52:32;;;;;;;54.40;8.50;;;8.80;99.90;;;;;;5051481;28;20550;-71
2022/04/07 04:54:57;;;;;;;47.45;8.15;;;8.70;99.90;;;;;;5051880;28;20132;-71
2022/04/07 04:57:23;;;;;;;40.58;8.25;;;8.60;99.90;;;;;;5048510;28;20430;-71
2022/04/07 04:59:48;;;;;;;54.38;9.60;;;8.50;99.90;;;;;;5061373;28;20131;-76
2022/04/07 05:02:14;;;;;;;43.67;8.65;;;8.40;99.90;;;;;;5029022;28;20120;-70
2022/04/07 05:04:40;;;;;;;39.70;8.60;;;8.60;99.90;;;;;;5056979;28;20586;-67
2022/04/07 05:07:05;;;;;;;54.78;9.80;;;8.60;99.90;;;;;;5044647;28;20120;-70
2022/04/07 05:09:31;;;;;;;44.33;9.48;;;8.40;99.90;;;;;;5038612;28;20117;-73
2022/04/07 05:11:56;;;;;;;43.92;9.63;;;8.70;99.90;;;;;;5053649;28;20104;-69
2022/04/07 05:14:22;;;;;;;48.05;9.10;;;8.40;99.90;;;;;;5032491;28;20083;-71
2022/04/07 05:16:47;;;;;;;39.45;9.73;;;8.40;99.90;;;;;;5064521;28;20075;-73
2022/04/07 05:19:13;;;;;;;50.85;10.10;;;8.40;99.90;;;;;;5033851;28;20082;-65
2022/04/07 05:21:38;;;;;;;39.92;9.60;;;8.60;99.90;;;;;;5051315;28;20133;-70
2022/04/07 05:24:04;;;;;;;38.65;10.18;;;8.50;99.90;;;;;;5056357;28;20120;-67
2022/04/07 05:26:30;;;;;;;38.53;9.68;;;8.50;99.90;;;;;;5062404;28;20455;-68
2022/04/07 05:28:55;;;;;;;38.72;9.32;;;8.50;99.90;;;;;;5049673;28;20047;-64
2022/04/07 05:31:21;;;;;;;40.63;10.23;;;8.40;99.90;;;;;;5034359;28;20045;-73
2022/04/07 05:33:46;;;;;;;35.85;9.98;;;8.50;99.90;;;;;;5033013;28;20116;-75
2022/04/07 05:36:12;;;;;;;41.85;9.55;;;8.50;99.90;;;;;;5062050;28;20045;-68
2022/04/07 05:38:37;;;;;;;40.33;9.95;;;8.70;99.90;;;;;;5053548;28;20040;-69
2022/04/07 05:41:03;;;;;;;43.08;9.88;;;8.70;99.90;;;;;;5061893;28;20034;-66
2022/04/07 05:43:28;;;;;;;32.10;8.80;;;8.50;99.90;;;;;;5035294;28;20071;-69
2022/04/07 05:45:54;;;;;;;2.70;0.98;;;8.00;99.90;;;;;;5040368;28;20041;-74
2022/04/07 05:48:20;;;;;;;1.98;0.52;;;7.60;99.90;;;;;;5026577;28;20036;-71
2022/04/07 05:50:45;;;;;;;3.28;1.17;;;7.20;99.90;;;;;;5049107;28;20040;-71
2022/04/07 05:53:11;;;;;;;1.65;0.55;;;6.80;99.90;;;;;;5050794;28;20106;-72
2022/04/07 05:55:37;;;;;;;4.65;1.02;;;6.40;99.90;;;;;;5052760;28;20500;-73
2022/04/07 05:58:04;;;;;;;7.90;1.27;;;6.10;99.90;;;;;;5061261;28;20043;-68
2022/04/07 06:00:30;;;;;;;4.22;1.02;;;5.70;99.90;;;;;;5033937;28;20040;-70
2022/04/07 06:02:55;;;;;;;10.65;1.65;;;5.60;99.90;;;;;;5049174;28;20032;-72
2022/04/07 06:05:21;;;;;;;16.67;1.27;;;5.50;99.90;;;;;;5049593;28;20075;-69
2022/04/07 06:07:46;;;;;;;5.95;1.30;;;5.50;99.90;;;;;;5049303;28;20029;-73
2022/04/07 06:10:12;;;;;;;10.23;2.20;;;5.50;99.90;;;;;;5054029;28;21229;-72
2022/04/07 06:12:42;;;;;;;5.85;1.92;;;5.40;99.90;;;;;;5032448;28;20060;-72
2022/04/07 06:15:11;;;;;;;11.75;1.33;;;5.30;99.90;;;;;;5049202;28;20068;-73
2022/04/07 06:17:42;;;;;;;4.15;0.98;;;5.40;99.90;;;;;;5049571;28;20067;-75
2022/04/07 06:20:12;;;;;;;16.52;2.30;;;5.60;99.90;;;;;;5029316;28;20049;-73
2022/04/07 06:22:39;;;;;;;12.80;1.42;;;5.50;99.90;;;;;;5047752;28;20040;-72
2022/04/07 06:25:05;;;;;;;15.43;1.20;;;5.30;99.90;;;;;;5037145;28;20110;-68
2022/04/07 06:27:43;;;;;;;13.27;1.58;;;5.30;99.90;;;;;;5045882;28;20381;-68
2022/04/07 06:30:13;;;;;;;6.30;0.90;;;5.30;99.90;;;;;;5058912;28;20476;-68
2022/04/07 06:32:40;;;;;;;5.35;1.08;;;5.30;99.90;;;;;;5051554;28;20040;-71
2022/04/07 06:35:07;;;;;;;12.02;1.63;;;5.50;99.90;;;;;;5052900;28;20098;-72
2022/04/07 06:37:45;;;;;;;9.27;1.40;;;5.40;99.90;;;;;;5029958;28;20057;-71
2022/04/07 06:40:12;;;;;;;11.25;1.55;;;5.30;99.90;;;;;;5054604;28;20107;-71
2022/04/07 06:42:38;;;;;;;9.85;1.23;;;4.90;99.90;;;;;;5049004;28;20033;-70
2022/04/07 06:45:05;;;;;;;12.43;2.00;;;4.90;99.90;;;;;;5059442;28;20083;-64
2022/04/07 06:47:39;;;;;;;10.98;1.60;;;5.30;99.90;;;;;;5048459;28;20044;-70
2022/04/07 06:50:06;;;;;;;10.70;1.48;;;5.10;99.90;;;;;;5050851;28;20041;-74
2022/04/07 06:52:32;;;;;;;9.38;1.73;;;5.20;99.90;;;;;;5050453;28;20412;-64
2022/04/07 06:54:57;;;;;;;14.00;1.80;;;4.90;99.90;;;;;;5048492;28;20086;-72
2022/04/07 06:57:23;;;;;;;7.05;1.67;;;4.90;99.90;;;;;;5049614;28;20047;-67
2022/04/07 06:59:48;;;;;;;7.60;1.50;;;5.30;99.90;;;;;;5049513;28;20045;-64
2022/04/07 07:02:14;;;;;;;14.07;1.90;;;5.30;99.90;;;;;;5047516;28;20045;-70
2022/04/07 07:04:40;;;;;;;10.15;1.92;;;5.40;99.90;;;;;;5049957;28;20101;-69
2022/04/07 07:07:06;;;;;;;11.18;1.92;;;5.00;99.90;;;;;;5032409;28;20037;-72
2022/04/07 07:09:32;;;;;;;11.48;1.65;;;5.40;99.90;;;;;;5058378;28;20053;-67
2022/04/07 07:11:57;;;;;;;9.95;2.03;;;5.10;99.90;;;;;;5048068;28;20488;-67
2022/04/07 07:14:23;;;;;;;15.13;1.90;;;5.10;99.90;;;;;;5048230;28;20041;-67
2022/04/07 07:16:48;;;;;;;11.43;2.20;;;5.20;99.90;;;;;;5052221;28;20053;-72
2022/04/07 07:19:16;;;;;;;11.25;2.20;;;5.20;99.90;;;;;;5016902;28;20543;-69
2022/04/07 07:21:41;;;;;;;14.63;1.75;;;5.30;99.90;;;;;;5040844;28;20400;-71
2022/04/07 07:24:07;;;;;;;12.02;1.40;;;5.40;99.90;;;;;;5049469;28;20039;-69
2022/04/07 07:26:33;;;;;;;12.43;2.05;;;5.40;99.90;;;;;;5035825;28;20046;-69
2022/04/07 07:29:00;;;;;;;9.35;2.33;;;5.10;99.90;;;;;;5042965;28;20033;-68
2022/04/07 07:31:26;;;;;;;9.23;1.40;;;5.50;99.90;;;;;;5022215;28;20571;-73
2022/04/07 07:33:52;;;;;;;8.13;1.30;;;5.40;99.90;;;;;;5024042;28;20038;-71
2022/04/07 07:36:17;;;;;;;9.30;2.00;;;5.40;99.90;;;;;;5049082;28;20484;-73
2022/04/07 07:38:43;;;;;;;6.05;1.48;;;5.40;99.90;;;;;;5043346;28;20465;-73
2022/04/07 07:41:08;;;;;;;13.30;1.80;;;5.20;99.90;;;;;;5031927;28;20037;-71
2022/04/07 07:43:34;;;;;;;9.70;2.05;;;5.30;99.90;;;;;;5049307;28;20041;-69
2022/04/07 07:45:59;;;;;;;10.38;1.60;;;5.20;99.90;;;;;;5049122;28;20085;-71
2022/04/07 07:48:29;;;;;;;14.25;2.05;;;5.20;99.90;;;;;;5050002;28;20045;-71
2022/04/07 07:50:55;;;;;;;11.55;1.80;;;5.30;99.90;;;;;;5028377;28;20070;-70
2022/04/07 07:53:21;;;;;;;7.47;1.30;;;5.60;99.90;;;;;;5045140;28;20373;-71
2022/04/07 07:55:47;;;;;;;10.02;1.60;;;5.60;99.90;;;;;;5048352;28;20072;-68
2022/04/07 07:58:13;;;;;;;8.00;1.60;;;5.60;99.90;;;;;;5036026;28;20036;-64
2022/04/07 08:00:39;;;;;;;9.82;1.52;;;5.70;99.90;;;;;;5048135;28;20033;-70
2022/04/07 08:03:05;;;;;;;12.65;1.67;;;5.70;99.90;;;;;;5048506;28;20392;-69
2022/04/07 08:05:30;;;;;;;9.00;1.58;;;5.50;99.90;;;;;;5048882;28;20041;-68
2022/04/07 08:07:57;;;;;;;9.98;1.75;;;5.60;99.90;;;;;;5065767;28;20075;-73
2022/04/07 08:10:22;;;;;;;13.10;1.73;;;5.70;99.90;;;;;;5032364;28;20117;-66
2022/04/07 08:12:48;;;;;;;10.10;1.70;;;5.90;99.90;;;;;;5049988;28;20044;-73
2022/04/07 08:15:13;;;;;;;10.85;1.50;;;6.00;99.90;;;;;;5052419;28;20041;-70
2022/04/07 08:17:39;;;;;;;10.57;1.52;;;6.00;99.90;;;;;;5052783;28;20040;-75
2022/04/07 08:20:07;;;;;;;14.13;1.73;;;6.10;99.90;;;;;;5035362;28;20040;-69
2022/04/07 08:22:33;;;;;;;10.23;2.60;;;6.20;99.90;;;;;;5049535;28;20037;-70
2022/04/07 08:24:59;;;;;;;12.25;2.00;;;6.00;99.90;;;;;;5029568;28;20041;-71
2022/04/07 08:27:24;;;;;;;11.95;1.92;;;6.30;99.90;;;;;;5034363;28;20448;-73
2022/04/07 08:29:51;;;;;;;11.15;2.10;;;6.40;99.90;;;;;;5048635;28;20045;-71
2022/04/07 08:32:16;;;;;;;8.38;1.63;;;6.30;99.90;;;;;;5052526;28;20069;-73
2022/04/07 08:34:42;;;;;;;13.00;1.88;;;6.40;99.90;;;;;;5040700;28;20069;-68
2022/04/07 08:37:08;;;;;;;10.23;1.98;;;6.50;99.90;;;;;;5050664;28;20484;-69
2022/04/07 08:39:33;;;;;;;10.50;2.05;;;6.50;99.90;;;;;;5049226;28;20068;-68
2022/04/07 08:41:59;;;;;;;18.40;2.58;;;6.70;99.90;;;;;;5050046;28;20037;-67
2022/04/07 08:44:31;;;;;;;10.52;1.70;;;6.90;99.90;;;;;;5057298;28;20045;-75
2022/04/07 08:46:57;;;;;;;12.15;2.20;;;7.20;99.90;;;;;;5053654;28;20033;-68
2022/04/07 08:49:26;;;;;;;13.70;2.40;;;7.40;99.90;;;;;;5044149;28;20044;-68
2022/04/07 08:51:53;;;;;;;6.57;1.67;;;7.50;99.90;;;;;;5045996;28;20045;-68
2022/04/07 08:54:19;;;;;;;8.43;2.05;;;7.70;99.90;;;;;;5051639;28;20045;-69
2022/04/07 08:56:46;;;;;;;12.65;2.17;;;7.90;99.90;;;;;;5051965;28;20048;-69
2022/04/07 08:59:12;;;;;;;9.07;1.42;;;8.00;99.90;;;;;;5050707;28;20086;-70
2022/04/07 09:01:37;;;;;;;11.68;2.60;;;8.10;99.90;;;;;;5048943;28;20028;-67
2022/04/07 09:04:03;;;;;;;10.57;1.95;;;8.20;99.90;;;;;;5038407;28;20120;-70
2022/04/07 09:06:32;;;;;;;18.20;2.60;;;8.20;99.90;;;;;;5051787;28;20045;-68
2022/04/07 09:09:10;;;;;;;10.98;2.10;;;8.30;99.90;;;;;;5049933;28;20041;-68
2022/04/07 09:11:36;;;;;;;14.88;2.33;;;8.40;99.90;;;;;;5067398;28;20426;-72
2022/04/07 09:14:01;;;;;;;21.25;2.60;;;8.60;99.90;;;;;;5051590;28;20182;-70
2022/04/07 09:16:28;;;;;;;10.98;2.25;;;8.70;99.90;;;;;;5055712;28;20074;-69
2022/04/07 09:18:54;;;;;;;7.45;2.00;;;8.80;99.90;;;;;;5047417;28;20044;-72
2022/04/07 09:21:26;;;;;;;14.50;2.90;;;8.80;99.90;;;;;;5039858;28;20051;-73
2022/04/07 09:23:54;;;;;;;15.73;2.37;;;9.00;99.90;;;;;;5041751;28;20041;-70
2022/04/07 09:26:20;;;;;;;13.45;2.53;;;9.20;99.90;;;;;;5063686;28;20284;-67
2022/04/07 09:28:45;;;;;;;19.60;2.90;;;9.40;99.90;;;;;;5050984;28;20052;-67
2022/04/07 09:31:13;;;;;;;19.42;2.80;;;9.40;99.90;;;;;;5051423;28;20036;-70
2022/04/07 09:33:38;;;;;;;12.52;2.55;;;9.40;99.90;;;;;;5051208;28;20091;-72
2022/04/07 09:36:06;;;;;;;14.32;3.17;;;9.40;99.90;;;;;;5045561;28;20045;-71
2022/04/07 09:38:34;;;;;;;15.32;2.60;;;9.50;99.90;;;;;;5067799;28;20071;-70
2022/04/07 09:41:11;;;;;;;14.35;2.88;;;9.70;99.90;;;;;;5051145;28;20037;-69
2022/04/07 09:43:49;;;;;;;18.67;2.72;;;9.80;99.90;;;;;;5050870;28;20080;-73
2022/04/07 09:46:18;;;;;;;24.80;4.05;;;9.70;99.90;;;;;;5051064;28;20422;-67
2022/04/07 09:49:03;;;;;;;12.88;2.97;;;9.70;99.90;;;;;;5050634;28;20368;-76
2022/04/07 09:51:30;;;;;;;16.77;3.13;;;9.80;99.90;;;;;;5047591;28;20041;-72
2022/04/07 09:53:57;;;;;;;19.65;3.15;;;9.80;99.90;;;;;;5034343;28;20040;-68
2022/04/07 09:56:30;;;;;;;20.65;3.15;;;9.60;99.90;;;;;;5049421;28;20032;-67
2022/04/07 09:58:56;;;;;;;24.17;4.03;;;9.40;99.90;;;;;;5050147;28;20045;-73
2022/04/07 10:01:23;;;;;;;21.40;2.95;;;9.30;99.90;;;;;;5033730;28;20037;-70
2022/04/07 10:03:52;;;;;;;26.58;4.22;;;9.30;99.90;;;;;;5061111;28;20067;-67
2022/04/07 10:06:19;;;;;;;18.58;3.15;;;9.40;99.90;;;;;;5050143;28;20037;-70
2022/04/07 10:08:49;;;;;;;30.73;5.00;;;9.30;99.90;;;;;;5046854;28;20124;-67
2022/04/07 10:11:17;;;;;;;26.83;3.30;;;9.40;99.90;;;;;;5035109;28;20488;-67
2022/04/07 10:13:46;;;;;;;21.63;3.95;;;9.50;99.90;;;;;;5049963;28;20063;-69
2022/04/07 10:16:16;;;;;;;25.45;3.58;;;9.50;99.90;;;;;;5050406;28;20396;-72
2022/04/07 10:18:55;;;;;;;19.00;3.30;;;9.60;99.90;;;;;;5049724;28;20045;-75
2022/04/07 10:21:48;;;;;;;26.48;4.45;;;9.90;99.90;;;;;;5031093;28;20566;-69
2022/04/07 10:24:45;;;;;;;22.90;3.47;;;9.90;99.90;;;;;;5030863;28;20037;-66
2022/04/07 10:27:13;;;;;;;23.92;3.65;;;9.90;99.90;;;;;;5030227;28;20053;-73
2022/04/07 10:29:39;;;;;;;29.15;4.50;;;9.80;99.90;;;;;;5031216;28;20081;-72
2022/04/07 10:32:11;;;;;;;31.60;5.40;;;9.90;99.90;;;;;;5049457;28;20371;-66
2022/04/07 10:34:37;;;;;;;23.37;5.47;;;9.90;99.90;;;;;;5049710;28;20117;-68
2022/04/07 10:37:06;;;;;;;32.15;6.30;;;9.90;99.90;;;;;;5045040;28;20406;-68
2022/04/07 10:39:32;;;;;;;28.90;5.53;;;9.40;99.90;;;;;;5048221;28;20045;-70
2022/04/07 10:41:59;;;;;;;23.55;4.03;;;9.30;99.90;;;;;;5048680;28;20041;-68
2022/04/07 10:44:26;;;;;;;33.45;4.93;;;9.30;99.90;;;;;;5048417;28;20075;-71
2022/04/07 10:47:06;;;;;;;25.95;4.40;;;9.40;99.90;;;;;;5048561;28;20044;-65
2022/04/07 10:49:33;;;;;;;29.55;4.65;;;9.50;99.90;;;;;;5049005;28;20044;-70
2022/04/07 10:52:02;;;;;;;36.25;4.65;;;9.40;99.90;;;;;;5065040;28;20569;-70
2022/04/07 10:54:29;;;;;;;27.02;4.45;;;9.30;99.90;;;;;;5046534;28;20045;-70
2022/04/07 10:57:02;;;;;;;28.45;4.50;;;9.40;99.90;;;;;;5030037;28;20092;-69
2022/04/07 10:59:29;;;;;;;31.77;5.20;;;9.50;99.90;;;;;;5046212;28;20394;-66
2022/04/07 11:02:03;;;;;;;25.15;3.75;;;9.40;99.90;;;;;;5036773;28;20041;-69
2022/04/07 11:04:40;;;;;;;37.92;5.13;;;9.20;99.90;;;;;;5030113;28;20473;-69
2022/04/07 11:07:13;;;;;;;32.58;4.72;;;9.00;99.90;;;;;;5040341;28;20029;-69
2022/04/07 11:09:57;;;;;;;27.23;4.88;;;8.90;99.90;;;;;;5059022;28;20128;-69
2022/04/07 11:12:28;;;;;;;26.42;3.60;;;8.70;99.90;;;;;;5032583;28;20037;-71
2022/04/07 11:15:28;;;;;;;31.43;5.13;;;8.80;99.90;;;;;;5033509;28;20122;-69
2022/04/07 11:18:01;;;;;;;36.55;5.97;;;8.80;99.90;;;;;;5028972;28;20423;-69
2022/04/07 11:20:27;;;;;;;24.67;4.32;;;8.90;99.90;;;;;;5046320;28;20060;-69
2022/04/07 11:22:57;;;;;;;24.55;4.18;;;9.10;99.90;;;;;;5056797;28;20029;-72
2022/04/07 11:25:39;;;;;;;25.73;4.95;;;9.20;99.90;;;;;;5038914;28;20441;-69
2022/04/07 11:28:10;;;;;;;28.45;4.40;;;9.40;99.90;;;;;;5043297;28;20561;-70
2022/04/07 11:30:52;;;;;;;29.55;5.22;;;9.70;99.90;;;;;;5049010;28;20041;-69
2022/04/07 11:33:23;;;;;;;34.72;5.32;;;9.80;99.90;;;;;;5048979;28;20396;-66
2022/04/07 11:36:01;;;;;;;24.92;5.13;;;9.80;99.90;;;;;;5049933;28;20132;-68
2022/04/07 11:38:28;;;;;;;21.02;3.90;;;9.90;99.90;;;;;;5046885;28;20326;-71
2022/04/07 11:41:07;;;;;;;28.85;4.53;;;9.90;99.90;;;;;;5053154;28;20599;-72
2022/04/07 11:43:37;;;;;;;45.90;6.43;;;9.90;99.90;;;;;;5033460;28;20041;-69
2022/04/07 11:46:03;;;;;;;27.58;4.75;;;10.00;99.90;;;;;;5051530;28;20036;-69
2022/04/07 11:48:33;;;;;;;35.28;5.95;;;10.20;99.90;;;;;;5050811;28;20041;-68
2022/04/07 11:51:00;;;;;;;31.90;6.05;;;10.30;99.90;;;;;;5052330;28;20072;-70
2022/04/07 11:53:27;;;;;;;27.20;4.50;;;10.40;99.90;;;;;;5068820;28;20731;-73
2022/04/07 11:55:52;;;;;;;36.42;5.57;;;10.50;99.90;;;;;;5025741;28;20669;-69
2022/04/07 11:58:18;;;;;;;27.35;4.93;;;10.50;99.90;;;;;;5033448;28;20041;-72
2022/04/07 12:00:43;;;;;;;25.33;4.75;;;10.50;99.90;;;;;;5028627;28;20037;-70
2022/04/07 12:03:09;;;;;;;25.15;3.85;;;10.30;99.90;;;;;;5053151;28;20040;-67
2022/04/07 12:05:39;;;;;;;20.65;4.25;;;10.20;99.90;;;;;;5062154;28;20036;-70
2022/04/07 12:08:15;;;;;;;25.67;5.30;;;10.10;99.90;;;;;;5032994;28;20569;-68
2022/04/07 12:10:43;;;;;;;25.23;4.63;;;10.20;99.90;;;;;;5017599;28;20077;-66
2022/04/07 12:13:09;;;;;;;26.23;5.25;;;10.50;99.90;;;;;;5061354;28;20516;-73
2022/04/07 12:15:35;;;;;;;30.20;5.47;;;10.50;99.90;;;;;;5062878;28;20087;-68
2022/04/07 12:18:02;;;;;;;21.63;4.38;;;10.60;99.90;;;;;;5052519;28;20072;-69
2022/04/07 12:20:29;;;;;;;27.65;5.13;;;10.70;99.90;;;;;;5049654;28;20124;-68
2022/04/07 12:23:08;;;;;;;22.77;4.38;;;10.60;99.90;;;;;;5045060;28;20072;-70
2022/04/07 12:25:39;;;;;;;22.58;3.88;;;10.70;99.90;;;;;;5055672;28;20079;-69
2022/04/07 12:28:17;;;;;;;26.63;4.00;;;10.60;99.90;;;;;;5050783;28;20033;-69
2022/04/07 12:30:52;;;;;;;23.60;4.15;;;10.80;99.90;;;;;;5050968;28;20036;-69
2022/04/07 12:33:42;;;;;;;21.50;4.07;;;10.70;99.90;;;;;;5045087;28;20068;-71
2022/04/07 12:36:16;;;;;;;17.23;3.58;;;11.00;99.90;;;;;;5032504;28;20049;-68
2022/04/07 12:39:05;;;;;;;21.80;4.03;;;11.00;99.90;;;;;;5031806;28;20116;-67
2022/04/07 12:41:39;;;;;;;29.77;4.65;;;11.10;99.90;;;;;;5035211;28;20067;-70
2022/04/07 12:44:06;;;;;;;20.08;3.70;;;10.90;99.90;;;;;;5048702;28;20040;-68
2022/04/07 12:46:50;;;;;;;24.33;5.20;;;10.70;99.90;;;;;;5035198;28;20123;-68
2022/04/07 12:49:23;;;;;;;18.52;3.72;;;10.70;99.90;;;;;;5050463;28;20142;-65